Time;durP1;ratioP1;P1;durP2;ratioP2;P2;SDS_P1;SDS_P2;PMS_P1;PMS_P2;Temp;Humidity;BMP_temperature;BMP_pressure;BME280_temperature;BME280_humidity;BME280_pressure;Samples;Min_cycle;Max_cycle;Signal;HPM_P1;HPM_P2
2021/04/17 00:00:50;;;;;;;9.70;8.40;;;4.00;99.90;;;;;;5033344;28;20178;-67
2021/04/17 00:03:16;;;;;;;11.23;10.13;;;4.00;99.90;;;;;;5033541;28;20273;-66
2021/04/17 00:05:41;;;;;;;10.30;9.40;;;4.00;99.90;;;;;;5031842;28;20216;-66
2021/04/17 00:08:07;;;;;;;11.30;10.10;;;4.00;99.90;;;;;;5033265;28;20278;-66
2021/04/17 00:10:32;;;;;;;11.57;9.93;;;4.00;99.90;;;;;;5032054;28;20639;-67
2021/04/17 00:12:58;;;;;;;10.03;9.03;;;3.90;99.90;;;;;;5029625;28;20218;-67
2021/04/17 00:15:24;;;;;;;11.20;9.70;;;3.80;99.90;;;;;;5026573;28;20186;-65
2021/04/17 00:17:49;;;;;;;9.60;8.70;;;3.80;99.90;;;;;;5028074;28;20222;-67
2021/04/17 00:20:15;;;;;;;10.40;8.50;;;3.80;99.90;;;;;;5025773;28;20183;-67
2021/04/17 00:22:41;;;;;;;10.67;9.67;;;3.80;99.90;;;;;;5032065;28;20206;-66
2021/04/17 00:25:07;;;;;;;11.60;10.30;;;3.70;99.90;;;;;;5030490;28;20575;-67
2021/04/17 00:27:32;;;;;;;11.90;10.00;;;3.70;99.90;;;;;;5032156;28;20194;-66
2021/04/17 00:29:58;;;;;;;11.17;9.80;;;3.70;99.90;;;;;;5024152;28;20436;-67
2021/04/17 00:32:23;;;;;;;9.70;8.77;;;3.80;99.90;;;;;;5033054;28;20648;-67
2021/04/17 00:34:49;;;;;;;9.33;8.33;;;3.80;99.90;;;;;;5032758;28;20208;-67
2021/04/17 00:37:15;;;;;;;13.10;11.00;;;3.80;99.90;;;;;;5031781;28;20241;-65
2021/04/17 00:39:40;;;;;;;11.60;10.47;;;3.80;99.90;;;;;;5032604;28;20197;-66
2021/04/17 00:42:06;;;;;;;9.67;8.67;;;3.90;99.90;;;;;;5031833;28;20284;-67
2021/04/17 00:44:34;;;;;;;10.00;9.10;;;3.90;99.90;;;;;;5029556;28;20703;-67
2021/04/17 00:46:59;;;;;;;10.93;9.83;;;3.90;99.90;;;;;;5020374;28;20445;-67
2021/04/17 00:49:25;;;;;;;11.83;9.77;;;3.90;99.90;;;;;;5025797;28;20498;-66
2021/04/17 00:51:51;;;;;;;11.47;10.07;;;3.80;99.90;;;;;;5031594;28;20209;-67
2021/04/17 00:54:16;;;;;;;11.07;9.70;;;3.80;99.90;;;;;;5030759;28;20189;-65
2021/04/17 00:56:42;;;;;;;11.40;9.63;;;3.70;99.90;;;;;;5031610;28;20201;-68
2021/04/17 00:59:07;;;;;;;12.43;9.97;;;3.70;99.90;;;;;;5023326;28;20183;-65
2021/04/17 01:01:33;;;;;;;11.13;9.60;;;3.70;99.90;;;;;;5026331;28;20194;-67
2021/04/17 01:04:32;;;;;;;11.57;10.47;;;3.70;99.90;;;;;;5032090;28;20671;-66
2021/04/17 01:07:04;;;;;;;12.80;11.50;;;3.70;99.90;;;;;;5026505;28;20242;-67
2021/04/17 01:09:36;;;;;;;12.07;10.33;;;3.80;99.90;;;;;;5031150;28;20421;-67
2021/04/17 01:12:11;;;;;;;11.00;9.90;;;3.80;99.90;;;;;;5031179;28;20445;-67
2021/04/17 01:14:37;;;;;;;11.77;10.53;;;3.80;99.90;;;;;;5031028;28;20429;-67
2021/04/17 01:17:06;;;;;;;11.63;10.40;;;3.80;99.90;;;;;;5019790;28;20472;-65
2021/04/17 01:19:40;;;;;;;11.63;10.40;;;3.80;99.90;;;;;;5022617;28;20438;-67
2021/04/17 01:22:12;;;;;;;16.03;12.10;;;3.80;99.90;;;;;;5024268;28;20457;-67
2021/04/17 01:24:40;;;;;;;12.80;10.10;;;3.80;99.90;;;;;;5031324;28;20429;-66
2021/04/17 01:27:07;;;;;;;14.17;11.57;;;3.70;99.90;;;;;;5031732;28;20515;-66
2021/04/17 01:29:36;;;;;;;10.60;9.50;;;3.60;99.90;;;;;;5030141;28;20853;-67
2021/04/17 01:32:04;;;;;;;13.50;11.00;;;3.60;99.90;;;;;;5031121;28;20436;-67
2021/04/17 01:34:30;;;;;;;11.40;10.20;;;3.70;99.90;;;;;;5028423;28;20428;-66
2021/04/17 01:36:58;;;;;;;12.10;10.30;;;3.80;99.90;;;;;;5020524;28;20834;-67
2021/04/17 01:39:26;;;;;;;13.50;10.57;;;3.80;99.90;;;;;;5029406;28;20432;-66
2021/04/17 01:42:01;;;;;;;13.77;11.20;;;3.80;99.90;;;;;;5031285;28;20464;-67
2021/04/17 01:44:33;;;;;;;12.63;10.70;;;3.80;99.90;;;;;;5028683;28;20430;-67
2021/04/17 01:47:07;;;;;;;12.53;11.00;;;3.80;99.90;;;;;;5017046;28;20502;-66
2021/04/17 01:49:37;;;;;;;14.10;10.67;;;3.70;99.90;;;;;;5030090;28;20474;-66
2021/04/17 01:52:03;;;;;;;11.87;10.60;;;3.70;99.90;;;;;;5031360;28;20432;-66
2021/04/17 01:54:33;;;;;;;12.43;11.20;;;3.70;99.90;;;;;;5019987;28;20440;-67
2021/04/17 01:57:02;;;;;;;12.00;10.23;;;3.70;99.90;;;;;;5017080;28;20544;-67
2021/04/17 01:59:31;;;;;;;12.90;10.83;;;3.70;99.90;;;;;;5030670;28;20989;-66
2021/04/17 02:01:57;;;;;;;12.43;11.10;;;3.70;99.90;;;;;;5030462;28;20814;-66
2021/04/17 02:04:23;;;;;;;17.87;10.73;;;3.80;99.90;;;;;;5031115;28;20429;-68
2021/04/17 02:06:48;;;;;;;12.90;10.60;;;3.80;99.90;;;;;;5030613;28;20429;-66
2021/04/17 02:09:14;;;;;;;11.90;10.70;;;3.80;99.90;;;;;;5015447;28;20186;-66
2021/04/17 02:11:39;;;;;;;11.53;10.33;;;3.80;99.90;;;;;;5030392;28;20185;-65
2021/04/17 02:14:05;;;;;;;12.80;11.50;;;3.80;99.90;;;;;;5025016;28;20257;-66
2021/04/17 02:16:43;;;;;;;11.33;10.27;;;3.80;99.90;;;;;;5019850;28;20186;-66
2021/04/17 02:19:16;;;;;;;12.60;10.90;;;3.70;99.90;;;;;;5029395;28;20441;-67
2021/04/17 02:21:47;;;;;;;14.70;12.43;;;3.70;99.90;;;;;;5030309;28;21119;-66
2021/04/17 02:24:13;;;;;;;12.77;11.47;;;3.60;99.90;;;;;;5029110;28;20437;-67
2021/04/17 02:26:39;;;;;;;11.13;10.00;;;3.60;99.90;;;;;;5028519;28;20453;-66
2021/04/17 02:29:07;;;;;;;12.43;11.13;;;3.50;99.90;;;;;;5029284;28;20456;-66
2021/04/17 02:31:33;;;;;;;13.70;11.00;;;3.40;99.90;;;;;;5016851;28;20813;-66
2021/04/17 02:33:58;;;;;;;13.73;11.00;;;3.30;99.90;;;;;;5030583;28;20435;-65
2021/04/17 02:36:25;;;;;;;12.17;10.50;;;3.40;99.90;;;;;;5020398;28;20179;-66
2021/04/17 02:38:50;;;;;;;12.60;11.30;;;3.40;99.90;;;;;;5026357;28;20248;-66
2021/04/17 02:41:17;;;;;;;11.83;10.57;;;3.40;99.90;;;;;;5030091;28;20448;-67
2021/04/17 02:43:44;;;;;;;14.00;12.00;;;3.50;99.90;;;;;;5027246;28;20237;-67
2021/04/17 02:46:11;;;;;;;14.37;12.00;;;3.50;99.90;;;;;;5020959;28;20451;-67
2021/04/17 02:48:37;;;;;;;12.60;11.00;;;3.50;99.90;;;;;;5029547;28;20535;-67
2021/04/17 02:51:03;;;;;;;14.63;11.93;;;3.50;99.90;;;;;;5030197;28;20504;-66
2021/04/17 02:53:28;;;;;;;14.57;12.93;;;3.60;99.90;;;;;;5023069;28;20171;-65
2021/04/17 02:55:55;;;;;;;16.77;12.97;;;3.60;99.90;;;;;;5029599;28;20957;-66
2021/04/17 02:58:20;;;;;;;13.73;12.33;;;3.50;99.90;;;;;;5030724;28;20255;-67
2021/04/17 03:00:46;;;;;;;13.83;12.53;;;3.50;99.90;;;;;;5022326;28;21020;-66
2021/04/17 03:03:11;;;;;;;14.30;12.60;;;3.60;99.90;;;;;;5028011;28;20206;-67
2021/04/17 03:05:37;;;;;;;16.03;12.87;;;3.50;99.90;;;;;;5021255;28;20766;-66
2021/04/17 03:08:03;;;;;;;14.90;12.93;;;3.50;99.90;;;;;;5029608;28;20232;-67
2021/04/17 03:10:29;;;;;;;16.30;13.40;;;3.40;99.90;;;;;;5028389;28;20461;-66
2021/04/17 03:12:54;;;;;;;15.37;13.00;;;3.40;99.90;;;;;;5026371;28;20182;-67
2021/04/17 03:15:20;;;;;;;16.60;14.90;;;3.40;99.90;;;;;;5028831;28;20239;-66
2021/04/17 03:17:45;;;;;;;15.43;13.73;;;3.40;99.90;;;;;;5029283;28;20221;-66
2021/04/17 03:20:11;;;;;;;17.37;15.03;;;3.50;99.90;;;;;;5028884;28;20187;-65
2021/04/17 03:22:37;;;;;;;19.80;15.33;;;3.50;99.90;;;;;;5024650;28;20194;-66
2021/04/17 03:25:06;;;;;;;17.50;14.67;;;3.50;99.90;;;;;;5019250;28;20510;-66
2021/04/17 03:27:32;;;;;;;16.80;14.93;;;3.50;99.90;;;;;;5022234;28;20492;-66
2021/04/17 03:29:58;;;;;;;17.17;14.03;;;3.50;99.90;;;;;;5028429;28;20460;-67
2021/04/17 03:32:23;;;;;;;16.10;14.37;;;3.40;99.90;;;;;;5013901;28;20441;-67
2021/04/17 03:34:49;;;;;;;16.23;14.53;;;3.40;99.90;;;;;;5026470;28;20188;-66
2021/04/17 03:37:15;;;;;;;16.23;14.50;;;3.40;99.90;;;;;;5031938;28;20289;-67
2021/04/17 03:39:40;;;;;;;17.00;14.70;;;3.40;99.90;;;;;;5033545;28;20172;-68
2021/04/17 03:42:06;;;;;;;15.20;13.70;;;3.30;99.90;;;;;;5032790;28;20210;-67
2021/04/17 03:44:32;;;;;;;18.30;15.93;;;3.20;99.90;;;;;;5029210;28;20179;-66
2021/04/17 03:46:57;;;;;;;16.97;14.50;;;3.20;99.90;;;;;;5014751;28;20967;-67
2021/04/17 03:49:23;;;;;;;15.43;13.63;;;3.10;99.90;;;;;;5033686;28;20209;-68
2021/04/17 03:51:48;;;;;;;17.33;15.53;;;3.10;99.90;;;;;;5029772;28;20202;-66
2021/04/17 03:54:14;;;;;;;16.23;14.33;;;3.10;99.90;;;;;;5024830;28;20766;-67
2021/04/17 03:56:40;;;;;;;16.47;14.77;;;3.10;99.90;;;;;;5033463;28;20265;-66
2021/04/17 03:59:05;;;;;;;16.77;15.07;;;3.10;99.90;;;;;;5027531;28;20649;-68
2021/04/17 04:01:31;;;;;;;20.80;17.10;;;3.20;99.90;;;;;;5033623;28;20597;-67
2021/04/17 04:03:57;;;;;;;16.27;14.37;;;3.20;99.90;;;;;;5028340;28;20559;-66
2021/04/17 04:06:24;;;;;;;17.77;14.53;;;3.20;99.90;;;;;;5026729;28;20232;-66
2021/04/17 04:08:50;;;;;;;17.50;15.70;;;3.20;99.90;;;;;;5021293;28;20446;-66
2021/04/17 04:11:15;;;;;;;16.00;14.20;;;3.20;99.90;;;;;;5031932;28;20974;-67
2021/04/17 04:13:41;;;;;;;19.93;15.73;;;3.10;99.90;;;;;;5031623;28;20174;-66
2021/04/17 04:16:06;;;;;;;16.83;15.10;;;3.10;99.90;;;;;;5033220;28;20261;-67
2021/04/17 04:18:32;;;;;;;25.37;21.37;;;3.10;99.90;;;;;;5032615;28;20210;-68
2021/04/17 04:20:57;;;;;;;29.53;23.97;;;3.10;99.90;;;;;;5032895;28;20714;-67
2021/04/17 04:23:23;;;;;;;22.77;18.80;;;3.10;99.90;;;;;;5031750;28;20202;-67
2021/04/17 04:25:48;;;;;;;17.93;16.03;;;3.10;99.90;;;;;;5025255;28;20278;-66
2021/04/17 04:28:14;;;;;;;20.60;17.47;;;3.10;99.90;;;;;;5020655;28;20621;-66
2021/04/17 04:30:39;;;;;;;22.60;19.50;;;3.10;99.90;;;;;;5027654;28;20280;-66
2021/04/17 04:33:05;;;;;;;18.73;16.80;;;3.10;99.90;;;;;;5031912;28;20555;-66
2021/04/17 04:35:31;;;;;;;19.63;16.40;;;3.00;99.90;;;;;;5028356;28;20206;-67
2021/04/17 04:37:57;;;;;;;23.17;18.90;;;3.00;99.90;;;;;;5031319;28;20281;-67
2021/04/17 04:40:22;;;;;;;24.30;17.90;;;3.00;99.90;;;;;;5032504;28;20189;-67
2021/04/17 04:42:48;;;;;;;24.10;18.63;;;3.00;99.90;;;;;;5032489;28;20256;-67
2021/04/17 04:45:14;;;;;;;21.80;18.47;;;3.00;99.90;;;;;;5031435;28;20636;-66
2021/04/17 04:47:40;;;;;;;21.43;17.07;;;3.00;99.90;;;;;;5032568;28;20198;-66
2021/04/17 04:50:08;;;;;;;20.20;17.37;;;3.10;99.90;;;;;;5032484;28;20429;-66
2021/04/17 04:52:33;;;;;;;21.10;16.23;;;3.10;99.90;;;;;;5032344;28;20186;-67
2021/04/17 04:54:59;;;;;;;18.20;16.30;;;3.20;99.90;;;;;;5032205;28;20454;-68
2021/04/17 04:57:25;;;;;;;21.13;18.10;;;3.20;99.90;;;;;;5032424;28;20672;-67
2021/04/17 04:59:50;;;;;;;22.77;18.37;;;3.20;99.90;;;;;;5032113;28;20545;-67
2021/04/17 05:02:16;;;;;;;23.27;18.40;;;3.20;99.90;;;;;;5032205;28;20511;-66
2021/04/17 05:04:41;;;;;;;18.77;16.97;;;3.20;99.90;;;;;;5032288;28;20174;-67
2021/04/17 05:07:07;;;;;;;19.13;17.10;;;3.20;99.90;;;;;;5032106;28;20194;-67
2021/04/17 05:09:32;;;;;;;22.00;18.30;;;3.30;99.90;;;;;;5031616;28;20180;-66
2021/04/17 05:11:58;;;;;;;21.33;16.83;;;3.40;99.90;;;;;;5029826;28;20270;-67
2021/04/17 05:14:23;;;;;;;20.23;17.97;;;3.50;99.90;;;;;;5025110;28;20566;-67
2021/04/17 05:16:49;;;;;;;20.10;15.30;;;3.50;99.90;;;;;;5028761;28;20178;-66
2021/04/17 05:19:14;;;;;;;18.17;15.50;;;3.60;99.90;;;;;;5031639;28;20578;-66
2021/04/17 05:21:41;;;;;;;17.67;15.40;;;3.70;99.90;;;;;;5032014;28;20256;-67
2021/04/17 05:24:07;;;;;;;18.47;16.30;;;3.80;99.90;;;;;;5030804;28;20537;-67
2021/04/17 05:26:32;;;;;;;19.40;16.63;;;3.80;99.90;;;;;;5032014;28;20440;-67
2021/04/17 05:28:59;;;;;;;17.20;15.43;;;3.90;99.90;;;;;;5031710;28;20457;-68
2021/04/17 05:31:25;;;;;;;18.30;16.43;;;4.20;99.90;;;;;;5030690;28;20530;-67
2021/04/17 05:33:51;;;;;;;18.57;16.67;;;4.10;99.90;;;;;;5031940;28;20436;-67
2021/04/17 05:36:16;;;;;;;18.67;16.70;;;4.20;99.90;;;;;;5031771;28;20521;-67
2021/04/17 05:38:42;;;;;;;20.03;17.73;;;4.20;99.90;;;;;;5031372;28;20602;-67
2021/04/17 05:41:07;;;;;;;19.80;17.80;;;4.30;99.90;;;;;;5023080;28;20189;-67
2021/04/17 05:43:33;;;;;;;26.70;19.40;;;4.40;99.90;;;;;;5030706;28;20182;-67
2021/04/17 05:45:58;;;;;;;21.10;17.47;;;4.50;99.90;;;;;;5031444;28;20182;-66
2021/04/17 05:48:24;;;;;;;17.40;15.70;;;4.50;99.90;;;;;;5031838;28;20194;-68
2021/04/17 05:50:49;;;;;;;20.47;17.00;;;4.60;99.90;;;;;;5020303;28;20582;-67
2021/04/17 05:53:15;;;;;;;21.70;18.77;;;4.50;99.90;;;;;;5031466;28;20178;-67
2021/04/17 05:55:40;;;;;;;19.80;17.67;;;4.60;99.90;;;;;;5030731;28;20663;-66
2021/04/17 05:58:19;;;;;;;21.73;18.10;;;4.70;99.90;;;;;;5027434;28;20190;-67
2021/04/17 06:00:44;;;;;;;18.20;15.53;;;4.70;99.90;;;;;;5024395;28;20232;-68
2021/04/17 06:03:11;;;;;;;19.93;17.90;;;4.90;99.90;;;;;;5029238;28;20469;-68
2021/04/17 06:05:36;;;;;;;19.87;17.33;;;5.00;99.90;;;;;;5027124;28;20224;-68
2021/04/17 06:08:03;;;;;;;19.83;17.77;;;5.10;99.90;;;;;;5021502;28;20449;-69
2021/04/17 06:10:28;;;;;;;23.83;17.20;;;5.30;99.90;;;;;;5026144;28;20262;-69
2021/04/17 06:12:54;;;;;;;18.57;16.67;;;5.30;99.90;;;;;;5031473;28;20516;-67
2021/04/17 06:15:19;;;;;;;18.70;16.80;;;5.40;99.90;;;;;;5030574;28;20225;-67
2021/04/17 06:17:45;;;;;;;20.00;16.53;;;5.40;99.90;;;;;;5030836;28;20267;-68
2021/04/17 06:20:11;;;;;;;17.60;15.47;;;5.60;99.90;;;;;;5029695;28;20239;-67
2021/04/17 06:22:37;;;;;;;17.70;15.80;;;5.60;99.90;;;;;;5031017;28;20202;-67
2021/04/17 06:25:04;;;;;;;18.00;16.17;;;5.80;99.90;;;;;;5030234;28;20440;-68
2021/04/17 06:27:30;;;;;;;18.63;16.73;;;5.80;99.90;;;;;;5031136;28;20282;-68
2021/04/17 06:29:55;;;;;;;20.30;16.90;;;5.70;99.90;;;;;;5030128;28;20579;-65
2021/04/17 06:32:21;;;;;;;19.67;16.50;;;5.80;99.90;;;;;;5030498;28;20590;-68
2021/04/17 06:34:47;;;;;;;17.90;16.10;;;5.90;99.90;;;;;;5024053;28;20266;-69
2021/04/17 06:37:12;;;;;;;18.23;16.23;;;5.80;99.90;;;;;;5020710;28;20206;-65
2021/04/17 06:39:38;;;;;;;16.87;15.07;;;5.80;99.90;;;;;;5025759;28;20199;-68
2021/04/17 06:42:08;;;;;;;19.20;17.10;;;5.90;99.90;;;;;;5027462;28;20213;-69
2021/04/17 06:44:36;;;;;;;17.37;15.47;;;6.20;99.90;;;;;;5026823;28;20185;-69
2021/04/17 06:47:02;;;;;;;17.87;15.07;;;6.40;99.90;;;;;;5027428;28;20989;-65
2021/04/17 06:49:28;;;;;;;17.17;15.20;;;6.50;99.90;;;;;;5017011;28;20433;-67
2021/04/17 06:51:55;;;;;;;18.33;15.80;;;6.70;99.90;;;;;;5019625;28;20196;-67
2021/04/17 06:54:22;;;;;;;21.90;18.47;;;6.90;99.90;;;;;;5027389;28;20812;-68
2021/04/17 06:56:51;;;;;;;20.30;17.40;;;7.10;99.90;;;;;;5027122;28;20451;-67
2021/04/17 06:59:18;;;;;;;18.60;16.53;;;7.20;99.90;;;;;;5027157;28;20520;-67
2021/04/17 07:01:44;;;;;;;17.53;15.73;;;7.00;99.90;;;;;;5025782;28;20453;-66
2021/04/17 07:04:09;;;;;;;18.03;16.13;;;7.20;99.90;;;;;;5027532;28;20425;-66
2021/04/17 07:06:36;;;;;;;17.63;15.83;;;7.30;99.90;;;;;;5027281;28;20432;-67
2021/04/17 07:09:04;;;;;;;16.67;14.97;;;7.40;99.90;;;;;;5032424;28;20170;-67
2021/04/17 07:11:29;;;;;;;17.20;15.40;;;7.60;99.90;;;;;;5033702;28;20429;-67
2021/04/17 07:14:13;;;;;;;19.00;17.10;;;7.70;99.90;;;;;;5033927;28;20535;-68
2021/04/17 07:16:55;;;;;;;19.50;15.87;;;7.80;99.90;;;;;;5030668;28;20181;-66
2021/04/17 07:19:23;;;;;;;17.00;15.37;;;8.10;99.90;;;;;;5019631;28;20432;-67
2021/04/17 07:21:49;;;;;;;17.87;16.07;;;8.40;99.90;;;;;;5033893;28;20542;-67
2021/04/17 07:24:26;;;;;;;17.27;14.90;;;8.70;99.90;;;;;;5033350;28;20428;-66
2021/04/17 07:26:52;;;;;;;17.73;15.83;;;8.80;99.90;;;;;;5033418;28;20614;-67
2021/04/17 07:29:17;;;;;;;17.00;15.30;;;8.80;99.90;;;;;;5033867;28;21203;-66
2021/04/17 07:31:53;;;;;;;19.67;15.63;;;9.00;99.90;;;;;;5033867;28;20177;-66
2021/04/17 07:34:21;;;;;;;16.03;14.40;;;9.20;99.90;;;;;;5033838;28;20186;-66
2021/04/17 07:36:55;;;;;;;18.10;13.20;;;9.50;99.90;;;;;;5039326;28;20440;-66
2021/04/17 07:39:32;;;;;;;18.60;16.70;;;9.80;99.90;;;;;;5033233;28;20521;-68
2021/04/17 07:42:01;;;;;;;20.13;16.23;;;10.00;99.90;;;;;;5033990;28;21195;-66
2021/04/17 07:44:38;;;;;;;16.53;14.67;;;10.40;99.90;;;;;;5033531;28;20934;-65
2021/04/17 07:47:05;;;;;;;17.53;15.70;;;10.50;99.90;;;;;;5034044;28;20460;-65
2021/04/17 07:49:31;;;;;;;16.80;15.20;;;10.50;99.90;;;;;;5033598;28;20432;-65
2021/04/17 07:52:01;;;;;;;16.40;14.13;;;10.60;99.90;;;;;;5033710;28;20432;-65
2021/04/17 07:54:29;;;;;;;15.10;13.60;;;10.40;99.90;;;;;;5033814;28;20210;-66
2021/04/17 07:56:55;;;;;;;18.87;12.70;;;10.20;99.90;;;;;;5033547;28;20873;-66
2021/04/17 07:59:23;;;;;;;16.20;14.50;;;10.00;99.90;;;;;;5031950;28;20490;-66
2021/04/17 08:01:51;;;;;;;18.17;14.93;;;9.80;99.90;;;;;;5033460;28;20470;-66
2021/04/17 08:04:25;;;;;;;15.80;14.20;;;9.90;99.90;;;;;;5031567;28;20432;-66
2021/04/17 08:06:52;;;;;;;17.97;14.27;;;10.00;99.90;;;;;;5032157;28;20436;-67
2021/04/17 08:09:20;;;;;;;18.47;15.50;;;10.10;99.90;;;;;;5019305;28;20443;-66
2021/04/17 08:11:48;;;;;;;15.43;13.50;;;10.00;99.90;;;;;;5033408;28;21009;-66
2021/04/17 08:14:14;;;;;;;17.47;15.27;;;9.90;99.90;;;;;;5030907;28;20447;-66
2021/04/17 08:16:40;;;;;;;15.33;13.70;;;10.10;99.90;;;;;;5031963;28;20459;-66
2021/04/17 08:19:06;;;;;;;15.40;13.90;;;10.10;99.90;;;;;;5021869;28;20939;-66
2021/04/17 08:21:31;;;;;;;16.23;14.10;;;10.30;99.90;;;;;;5022388;28;20437;-64
2021/04/17 08:23:57;;;;;;;15.90;12.87;;;10.10;99.90;;;;;;5032814;28;20265;-66
2021/04/17 08:26:23;;;;;;;12.97;11.67;;;10.30;99.90;;;;;;5033027;28;20644;-64
2021/04/17 08:28:52;;;;;;;13.80;11.40;;;10.70;99.90;;;;;;5033122;28;20237;-65
2021/04/17 08:31:35;;;;;;;12.30;11.13;;;11.00;99.90;;;;;;5027825;28;20268;-66
2021/04/17 08:34:20;;;;;;;13.00;11.40;;;11.20;99.90;;;;;;5032999;28;20429;-64
2021/04/17 08:37:02;;;;;;;12.63;11.17;;;11.60;99.90;;;;;;5032833;28;20448;-69
2021/04/17 08:39:33;;;;;;;19.00;11.50;;;11.90;99.90;;;;;;5027133;28;20469;-65
2021/04/17 08:42:03;;;;;;;12.60;11.40;;;12.00;99.80;;;;;;5019708;28;20457;-66
2021/04/17 08:44:32;;;;;;;13.77;12.33;;;12.00;99.40;;;;;;5032186;28;20515;-66
2021/04/17 08:47:02;;;;;;;14.13;11.90;;;12.00;98.70;;;;;;5029025;28;20445;-65
2021/04/17 08:49:33;;;;;;;14.10;10.43;;;12.10;98.30;;;;;;5029226;28;20440;-66
2021/04/17 08:52:23;;;;;;;14.17;12.83;;;11.90;98.00;;;;;;5032101;28;20926;-66
2021/04/17 08:55:12;;;;;;;12.53;10.50;;;12.00;98.10;;;;;;5024786;28;20471;-65
2021/04/17 08:57:37;;;;;;;10.57;9.47;;;12.00;97.60;;;;;;5021409;28;20536;-66
2021/04/17 09:00:06;;;;;;;10.17;9.33;;;12.10;96.90;;;;;;5029865;28;20523;-66
2021/04/17 09:02:44;;;;;;;9.50;8.60;;;12.20;96.70;;;;;;5021467;28;20194;-66
2021/04/17 09:05:13;;;;;;;9.07;8.17;;;12.50;95.60;;;;;;5022956;28;20453;-66
2021/04/17 09:07:45;;;;;;;9.37;8.43;;;13.00;94.60;;;;;;5031314;28;20449;-66
2021/04/17 09:10:23;;;;;;;11.27;9.53;;;13.50;92.80;;;;;;5031577;28;20492;-66
2021/04/17 09:13:14;;;;;;;10.73;9.67;;;13.60;92.70;;;;;;5031564;28;20433;-66
2021/04/17 09:15:53;;;;;;;9.97;8.43;;;13.60;91.70;;;;;;5012539;28;20519;-66
2021/04/17 09:18:33;;;;;;;9.20;8.30;;;13.80;90.50;;;;;;5030765;28;20843;-66
2021/04/17 09:21:22;;;;;;;8.93;8.03;;;14.00;90.00;;;;;;5031676;28;20444;-66
2021/04/17 09:23:55;;;;;;;9.87;8.87;;;14.60;86.70;;;;;;5011010;28;20966;-66
2021/04/17 09:26:30;;;;;;;11.47;10.47;;;14.80;84.10;;;;;;5022755;28;20461;-66
2021/04/17 09:28:57;;;;;;;10.30;8.00;;;14.20;84.50;;;;;;5027800;28;20998;-66
2021/04/17 09:31:23;;;;;;;9.73;7.50;;;14.40;81.20;;;;;;5028889;28;20432;-66
2021/04/17 09:34:06;;;;;;;11.40;8.37;;;14.20;79.70;;;;;;5031010;28;20435;-66
2021/04/17 09:36:31;;;;;;;7.30;6.60;;;13.70;82.10;;;;;;5031859;28;20424;-66
2021/04/17 09:38:58;;;;;;;8.27;6.70;;;13.10;80.20;;;;;;5028463;28;20451;-66
2021/04/17 09:41:24;;;;;;;10.33;9.37;;;13.20;80.60;;;;;;5030598;28;20658;-66
2021/04/17 09:43:55;;;;;;;8.67;7.93;;;13.20;82.80;;;;;;5031028;28;20433;-66
2021/04/17 09:46:20;;;;;;;8.63;7.83;;;13.90;81.40;;;;;;5031123;28;20179;-66
2021/04/17 09:48:47;;;;;;;9.87;9.00;;;15.20;77.90;;;;;;5035013;28;20451;-66
2021/04/17 09:51:24;;;;;;;10.17;9.37;;;15.10;75.90;;;;;;5032197;28;20175;-66
2021/04/17 09:53:51;;;;;;;11.10;10.03;;;15.10;75.30;;;;;;5030303;28;20524;-66
2021/04/17 09:56:39;;;;;;;9.43;8.53;;;15.30;76.00;;;;;;5028297;28;20436;-66
2021/04/17 09:59:11;;;;;;;10.43;9.53;;;16.00;73.80;;;;;;5030766;28;20783;-66
2021/04/17 10:01:36;;;;;;;10.13;9.20;;;16.10;71.70;;;;;;5018716;28;20438;-66
2021/04/17 10:04:03;;;;;;;11.83;10.83;;;16.10;70.00;;;;;;5022301;28;20504;-65
2021/04/17 10:06:34;;;;;;;9.47;8.50;;;16.00;70.50;;;;;;5031326;28;20174;-66
2021/04/17 10:09:11;;;;;;;10.63;9.73;;;15.20;70.10;;;;;;5030070;28;20421;-69
2021/04/17 10:11:39;;;;;;;8.30;7.60;;;13.90;73.10;;;;;;5026976;28;20487;-66
2021/04/17 10:14:05;;;;;;;8.10;7.07;;;13.50;74.30;;;;;;5031232;28;20420;-66
2021/04/17 10:16:36;;;;;;;7.83;7.10;;;13.30;73.60;;;;;;5030965;28;20484;-65
2021/04/17 10:19:04;;;;;;;9.10;8.30;;;12.90;75.30;;;;;;5031036;28;20432;-66
2021/04/17 10:21:33;;;;;;;8.40;7.67;;;12.60;76.80;;;;;;5030678;28;20425;-66
2021/04/17 10:24:25;;;;;;;11.13;8.07;;;12.30;78.30;;;;;;5031275;28;20528;-66
2021/04/17 10:27:10;;;;;;;9.80;8.80;;;12.30;78.00;;;;;;5024289;28;20432;-68
2021/04/17 10:29:45;;;;;;;14.13;11.17;;;12.40;77.50;;;;;;5030383;28;20433;-66
2021/04/17 10:32:17;;;;;;;8.47;7.77;;;12.50;78.30;;;;;;5030889;28;20443;-66
2021/04/17 10:34:48;;;;;;;7.97;7.17;;;12.40;78.00;;;;;;5030164;28;20499;-66
2021/04/17 10:37:17;;;;;;;10.43;9.37;;;12.40;78.20;;;;;;5030870;28;20806;-66
2021/04/17 10:40:04;;;;;;;9.90;8.90;;;12.60;77.00;;;;;;5030308;28;20429;-66
2021/04/17 10:43:05;;;;;;;8.63;6.57;;;12.70;78.10;;;;;;5029853;28;20453;-66
2021/04/17 10:45:30;;;;;;;7.53;6.83;;;12.50;76.70;;;;;;4989519;28;20449;-66
2021/04/17 10:48:21;;;;;;;8.77;7.90;;;12.50;77.60;;;;;;5030342;28;20804;-66
2021/04/17 10:51:25;;;;;;;9.30;7.90;;;12.40;78.80;;;;;;5030223;28;20185;-66
2021/04/17 10:53:52;;;;;;;9.10;7.30;;;12.60;78.90;;;;;;4989710;28;20437;-66
2021/04/17 10:56:22;;;;;;;10.50;8.50;;;12.90;78.60;;;;;;5030516;28;20433;-66
2021/04/17 10:59:00;;;;;;;7.50;6.90;;;13.00;76.50;;;;;;5030431;28;20487;-66
2021/04/17 11:01:29;;;;;;;7.97;7.13;;;12.90;77.20;;;;;;5030084;28;20483;-66
2021/04/17 11:03:59;;;;;;;9.10;8.20;;;13.00;77.90;;;;;;5030540;28;20444;-66
2021/04/17 11:06:28;;;;;;;7.03;6.43;;;12.90;76.50;;;;;;5030488;28;20845;-65
2021/04/17 11:09:10;;;;;;;7.37;6.10;;;12.90;76.60;;;;;;5030378;28;20449;-66
2021/04/17 11:11:57;;;;;;;9.43;7.00;;;13.10;76.40;;;;;;5030461;28;20432;-66
2021/04/17 11:14:25;;;;;;;7.57;6.43;;;13.40;75.80;;;;;;5029683;28;20440;-66
2021/04/17 11:16:53;;;;;;;8.20;6.90;;;13.60;73.60;;;;;;5030429;28;20808;-66
2021/04/17 11:19:27;;;;;;;7.73;6.93;;;14.30;74.00;;;;;;5029657;28;20437;-66
2021/04/17 11:22:12;;;;;;;8.33;7.53;;;15.80;70.30;;;;;;5030089;28;20453;-66
2021/04/17 11:24:40;;;;;;;8.37;7.00;;;16.60;66.10;;;;;;5030495;28;20942;-66
2021/04/17 11:27:05;;;;;;;7.80;7.00;;;17.10;63.60;;;;;;5030545;28;20448;-66
2021/04/17 11:29:31;;;;;;;6.80;6.23;;;17.20;61.00;;;;;;5030373;28;20836;-66
2021/04/17 11:31:56;;;;;;;7.80;7.10;;;17.20;61.10;;;;;;5030606;28;20224;-66
2021/04/17 11:34:22;;;;;;;8.37;7.37;;;17.10;59.40;;;;;;5030192;28;20216;-66
2021/04/17 11:36:48;;;;;;;6.60;6.00;;;16.10;59.90;;;;;;5029482;28;20193;-66
2021/04/17 11:39:15;;;;;;;11.57;9.67;;;16.30;60.80;;;;;;5030369;28;20269;-66
2021/04/17 11:41:41;;;;;;;6.80;6.17;;;15.70;61.30;;;;;;5029907;28;20467;-66
2021/04/17 11:44:07;;;;;;;6.10;5.60;;;16.00;60.60;;;;;;5030335;28;20843;-66
2021/04/17 11:46:36;;;;;;;7.17;5.63;;;15.80;60.00;;;;;;5030131;28;20640;-66
2021/04/17 11:49:02;;;;;;;6.40;5.50;;;16.20;59.40;;;;;;5027801;28;20266;-64
2021/04/17 11:51:27;;;;;;;9.40;6.10;;;16.00;59.20;;;;;;5026813;28;20976;-64
2021/04/17 11:53:53;;;;;;;12.10;10.37;;;15.90;60.00;;;;;;5031218;28;20428;-68
2021/04/17 11:56:19;;;;;;;6.80;6.00;;;15.90;59.20;;;;;;5024528;28;20241;-69
2021/04/17 11:58:44;;;;;;;6.37;5.73;;;16.10;59.80;;;;;;5030249;28;20223;-69
2021/04/17 12:01:10;;;;;;;9.83;5.97;;;16.80;58.90;;;;;;5028587;28;20252;-70
2021/04/17 12:03:36;;;;;;;10.53;5.80;;;18.60;57.00;;;;;;5033342;28;20221;-69
2021/04/17 12:06:02;;;;;;;6.40;5.90;;;20.20;54.20;;;;;;5033302;28;20559;-69
2021/04/17 12:08:28;;;;;;;6.77;6.17;;;21.20;50.80;;;;;;5033425;28;20535;-68
2021/04/17 12:10:54;;;;;;;7.00;5.90;;;20.90;49.60;;;;;;5033434;28;20499;-68
2021/04/17 12:13:19;;;;;;;10.33;5.63;;;20.10;49.50;;;;;;5033400;28;20648;-68
2021/04/17 12:15:46;;;;;;;5.97;5.30;;;19.40;50.00;;;;;;5033498;28;20516;-68
2021/04/17 12:18:16;;;;;;;6.53;6.00;;;18.60;50.80;;;;;;5033146;28;20254;-68
2021/04/17 12:20:42;;;;;;;6.80;5.90;;;18.00;52.10;;;;;;5033045;28;20436;-68
2021/04/17 12:23:07;;;;;;;6.67;5.60;;;17.50;52.80;;;;;;5027514;28;20456;-65
2021/04/17 12:25:33;;;;;;;8.43;7.33;;;16.90;52.10;;;;;;5031665;28;20815;-65
2021/04/17 12:27:59;;;;;;;5.30;4.80;;;16.60;53.20;;;;;;5033131;28;20671;-66
2021/04/17 12:30:25;;;;;;;6.63;5.93;;;16.40;52.20;;;;;;5028680;28;20973;-66
2021/04/17 12:32:51;;;;;;;6.83;4.53;;;16.60;52.50;;;;;;5025492;28;20179;-65
2021/04/17 12:35:20;;;;;;;5.37;4.97;;;16.50;53.10;;;;;;5032673;28;20489;-65
2021/04/17 12:37:46;;;;;;;5.67;4.97;;;16.00;53.10;;;;;;5033047;28;20459;-65
2021/04/17 12:40:12;;;;;;;5.40;4.90;;;15.80;53.90;;;;;;5032961;28;20437;-65
2021/04/17 12:42:38;;;;;;;5.20;4.70;;;15.70;54.30;;;;;;5032744;28;20786;-66
2021/04/17 12:45:06;;;;;;;5.97;5.37;;;15.80;54.10;;;;;;5033033;28;20457;-66